Time;durP1;ratioP1;P1;durP2;ratioP2;P2;SDS_P1;SDS_P2;PMS_P1;PMS_P2;Temp;Humidity;BMP_temperature;BMP_pressure;BME280_temperature;BME280_humidity;BME280_pressure;Samples;Min_cycle;Max_cycle;Signal;HPM_P1;HPM_P2
2021/03/18 00:01:49;;;;;;;0.38;0.38;;;;;;;;;;5046419;28;20177;-71
2021/03/18 00:04:17;;;;;;;0.20;0.20;;;;;;;;;;5045043;28;20169;-71
2021/03/18 00:06:45;;;;;;;0.13;0.13;;;;;;;;;;5047625;28;20173;-70
2021/03/18 00:09:13;;;;;;;0.10;0.10;;;;;;;;;;5037341;28;20239;-70
2021/03/18 00:11:41;;;;;;;0.10;0.10;;;;;;;;;;5045490;28;20254;-71
2021/03/18 00:14:14;;;;;;;0.17;0.17;;;;;;;;;;5030147;28;20162;-71
2021/03/18 00:16:41;;;;;;;0.20;0.20;;;;;;;;;;5030379;28;20249;-71
2021/03/18 00:19:08;;;;;;;0.13;0.13;;;;;;;;;;5012814;28;20224;-71
2021/03/18 00:21:34;;;;;;;1.55;0.85;;;;;;;;;;5031098;28;20193;-71
2021/03/18 00:24:00;;;;;;;0.43;0.43;;;;;;;;;;5031103;28;20622;-71
2021/03/18 00:26:28;;;;;;;0.30;0.30;;;;;;;;;;5013419;28;20267;-71
2021/03/18 00:28:54;;;;;;;0.10;0.10;;;;;;;;;;5030945;28;20260;-71
2021/03/18 00:31:26;;;;;;;0.10;0.10;;;;;;;;;;5030895;28;20689;-71
2021/03/18 00:33:52;;;;;;;0.10;0.10;;;;;;;;;;5030884;28;20170;-71
2021/03/18 00:36:18;;;;;;;0.70;0.70;;;;;;;;;;5012914;28;20246;-71
2021/03/18 00:38:45;;;;;;;0.68;0.68;;;;;;;;;;5013160;28;20549;-71
2021/03/18 00:41:12;;;;;;;0.10;0.10;;;;;;;;;;5030729;28;20165;-71
2021/03/18 00:43:39;;;;;;;0.52;0.52;;;;;;;;;;5030704;28;20627;-70
2021/03/18 00:46:06;;;;;;;0.10;0.10;;;;;;;;;;5012430;28;20177;-70
2021/03/18 00:48:33;;;;;;;0.13;0.13;;;;;;;;;;5050008;28;20343;-71
2021/03/18 00:51:01;;;;;;;0.13;0.13;;;;;;;;;;5050370;28;20565;-71
2021/03/18 00:53:35;;;;;;;0.10;0.10;;;;;;;;;;5050381;28;20162;-71
2021/03/18 00:56:02;;;;;;;1.25;1.17;;;;;;;;;;5050291;28;20745;-71
2021/03/18 00:58:28;;;;;;;0.10;0.10;;;;;;;;;;5050240;28;20192;-72
2021/03/18 01:00:56;;;;;;;0.10;0.10;;;;;;;;;;5032430;28;20168;-72
2021/03/18 01:03:28;;;;;;;0.10;0.10;;;;;;;;;;5050166;28;20263;-72
2021/03/18 01:06:00;;;;;;;0.20;0.20;;;;;;;;;;5049282;28;20166;-71
2021/03/18 01:08:27;;;;;;;0.10;0.10;;;;;;;;;;5049806;28;20193;-71
2021/03/18 01:10:59;;;;;;;0.10;0.10;;;;;;;;;;5032150;28;20197;-71
2021/03/18 01:13:26;;;;;;;0.20;0.20;;;;;;;;;;5032254;28;20176;-72
2021/03/18 01:15:55;;;;;;;0.10;0.10;;;;;;;;;;5049982;28;20165;-71
2021/03/18 01:18:22;;;;;;;0.10;0.10;;;;;;;;;;5049851;28;20169;-71
2021/03/18 01:20:48;;;;;;;0.10;0.10;;;;;;;;;;5049735;28;20193;-71
2021/03/18 01:23:14;;;;;;;0.20;0.20;;;;;;;;;;5032076;28;20177;-71
2021/03/18 01:25:41;;;;;;;0.95;0.95;;;;;;;;;;5032132;28;20176;-71
2021/03/18 01:28:10;;;;;;;0.73;0.73;;;;;;;;;;5031025;28;20205;-71
2021/03/18 01:30:37;;;;;;;0.10;0.10;;;;;;;;;;5031969;28;20189;-72
2021/03/18 01:33:03;;;;;;;0.38;0.38;;;;;;;;;;5049658;28;20162;-72
2021/03/18 01:35:30;;;;;;;0.10;0.10;;;;;;;;;;5064178;28;20211;-71
2021/03/18 01:37:56;;;;;;;0.15;0.15;;;;;;;;;;5089108;28;20251;-71
2021/03/18 01:40:24;;;;;;;0.20;0.20;;;;;;;;;;5089496;28;20164;-71
2021/03/18 01:42:50;;;;;;;0.10;0.10;;;;;;;;;;5071516;28;20586;-71
2021/03/18 01:45:17;;;;;;;0.10;0.10;;;;;;;;;;5089448;28;20200;-71
2021/03/18 01:47:45;;;;;;;0.10;0.10;;;;;;;;;;5089205;28;20313;-71
2021/03/18 01:50:12;;;;;;;0.10;0.10;;;;;;;;;;5089418;28;20163;-71
2021/03/18 01:52:38;;;;;;;0.10;0.10;;;;;;;;;;5071325;28;20227;-71
2021/03/18 01:55:09;;;;;;;0.10;0.10;;;;;;;;;;5089377;28;20188;-71
2021/03/18 01:57:37;;;;;;;0.22;0.22;;;;;;;;;;5088686;28;20175;-71
2021/03/18 02:00:04;;;;;;;0.10;0.10;;;;;;;;;;5089363;28;20144;-72
2021/03/18 02:02:30;;;;;;;0.40;0.40;;;;;;;;;;5089448;28;20247;-72
2021/03/18 02:04:56;;;;;;;0.30;0.30;;;;;;;;;;5071206;28;20611;-72
2021/03/18 02:07:23;;;;;;;0.10;0.10;;;;;;;;;;5071074;28;20186;-72
2021/03/18 02:09:49;;;;;;;0.38;0.38;;;;;;;;;;5071227;28;20156;-72
2021/03/18 02:12:15;;;;;;;0.10;0.10;;;;;;;;;;5088171;28;20531;-72
2021/03/18 02:14:41;;;;;;;0.10;0.10;;;;;;;;;;5089139;28;20160;-72
2021/03/18 02:17:09;;;;;;;0.10;0.10;;;;;;;;;;5091696;28;20152;-72
2021/03/18 02:19:50;;;;;;;0.15;0.15;;;;;;;;;;5075473;28;20164;-72
2021/03/18 02:22:16;;;;;;;0.10;0.10;;;;;;;;;;5092827;28;20168;-72
2021/03/18 02:24:51;;;;;;;0.10;0.10;;;;;;;;;;5091635;28;20164;-72
2021/03/18 02:27:36;;;;;;;0.20;0.20;;;;;;;;;;5093198;28;20186;-72
2021/03/18 02:30:21;;;;;;;0.10;0.10;;;;;;;;;;5093253;28;20175;-72
2021/03/18 02:32:47;;;;;;;0.10;0.10;;;;;;;;;;5075127;28;20170;-72
2021/03/18 02:35:31;;;;;;;0.15;0.15;;;;;;;;;;5092938;28;20199;-72
2021/03/18 02:38:01;;;;;;;0.30;0.30;;;;;;;;;;5074934;28;20171;-72
2021/03/18 02:40:28;;;;;;;0.10;0.10;;;;;;;;;;5091858;28;20156;-72
2021/03/18 02:42:58;;;;;;;0.10;0.10;;;;;;;;;;5074820;28;20160;-71
2021/03/18 02:45:26;;;;;;;0.10;0.10;;;;;;;;;;5092813;28;20241;-71
2021/03/18 02:47:54;;;;;;;0.10;0.10;;;;;;;;;;5071248;28;20263;-71
2021/03/18 02:50:21;;;;;;;0.10;0.10;;;;;;;;;;5072719;28;20160;-71
2021/03/18 02:52:48;;;;;;;0.10;0.10;;;;;;;;;;5070225;28;20240;-71
2021/03/18 02:55:14;;;;;;;0.10;0.10;;;;;;;;;;5071226;28;20216;-70
2021/03/18 02:57:42;;;;;;;0.10;0.10;;;;;;;;;;5072544;28;20203;-71
2021/03/18 03:00:09;;;;;;;0.20;0.20;;;;;;;;;;5072119;28;20165;-71
2021/03/18 03:02:36;;;;;;;0.52;0.52;;;;;;;;;;5071239;28;20169;-71
2021/03/18 03:05:04;;;;;;;0.10;0.10;;;;;;;;;;5072346;28;20184;-71
2021/03/18 03:07:30;;;;;;;0.50;0.50;;;;;;;;;;5072175;28;20156;-71
2021/03/18 03:09:58;;;;;;;0.00;0.00;;;;;;;;;;5070619;28;20169;-71
2021/03/18 03:12:26;;;;;;;2.17;0.75;;;;;;;;;;5070990;28;20172;-71
2021/03/18 03:14:54;;;;;;;0.10;0.10;;;;;;;;;;5070758;28;20179;-71
2021/03/18 03:17:21;;;;;;;0.28;0.28;;;;;;;;;;5071951;28;20188;-71
2021/03/18 03:19:47;;;;;;;0.20;0.20;;;;;;;;;;5072142;28;20176;-71
2021/03/18 03:22:14;;;;;;;0.85;0.85;;;;;;;;;;5072031;28;20153;-71
2021/03/18 03:24:42;;;;;;;0.10;0.10;;;;;;;;;;5071988;28;20161;-71
2021/03/18 03:27:09;;;;;;;0.10;0.10;;;;;;;;;;5071525;28;20207;-71
2021/03/18 03:29:36;;;;;;;0.10;0.10;;;;;;;;;;5070846;28;20188;-71
2021/03/18 03:32:04;;;;;;;0.10;0.10;;;;;;;;;;5070184;28;20192;-71
2021/03/18 03:34:32;;;;;;;0.10;0.10;;;;;;;;;;5071466;28;20164;-71
2021/03/18 03:36:58;;;;;;;0.10;0.10;;;;;;;;;;5070040;28;20192;-71
2021/03/18 03:39:24;;;;;;;0.10;0.10;;;;;;;;;;5071472;28;20171;-73
2021/03/18 03:41:50;;;;;;;0.20;0.20;;;;;;;;;;5070636;28;20195;-73
2021/03/18 03:44:17;;;;;;;0.20;0.20;;;;;;;;;;5071098;28;20169;-73
2021/03/18 03:46:43;;;;;;;0.10;0.10;;;;;;;;;;5075628;28;20215;-72
2021/03/18 03:49:09;;;;;;;0.10;0.10;;;;;;;;;;5091113;28;20207;-72
2021/03/18 03:51:43;;;;;;;0.10;0.10;;;;;;;;;;5091055;28;20149;-72
2021/03/18 03:54:10;;;;;;;0.65;0.65;;;;;;;;;;5091067;28;20159;-72
2021/03/18 03:56:55;;;;;;;0.10;0.10;;;;;;;;;;5090949;28;20199;-71
2021/03/18 03:59:23;;;;;;;0.10;0.10;;;;;;;;;;5090878;28;20169;-71
2021/03/18 04:01:54;;;;;;;0.75;0.75;;;;;;;;;;5072737;28;20191;-71
2021/03/18 04:04:31;;;;;;;0.20;0.20;;;;;;;;;;5091004;28;20168;-71
2021/03/18 04:07:18;;;;;;;0.10;0.10;;;;;;;;;;5090913;28;20206;-71
2021/03/18 04:09:45;;;;;;;0.10;0.10;;;;;;;;;;5090720;28;20195;-71
2021/03/18 04:12:13;;;;;;;0.17;0.17;;;;;;;;;;5090853;28;20165;-71
2021/03/18 04:14:43;;;;;;;0.47;0.47;;;;;;;;;;5090760;28;20247;-71
2021/03/18 04:17:10;;;;;;;0.10;0.10;;;;;;;;;;5090423;28;20248;-71
2021/03/18 04:19:37;;;;;;;0.10;0.10;;;;;;;;;;5090809;28;20665;-71
2021/03/18 04:22:05;;;;;;;0.10;0.10;;;;;;;;;;5090627;28;20156;-71
2021/03/18 04:24:33;;;;;;;0.20;0.20;;;;;;;;;;5090653;28;20167;-71
2021/03/18 04:26:59;;;;;;;0.10;0.10;;;;;;;;;;5089955;28;20164;-71
2021/03/18 04:29:26;;;;;;;0.47;0.40;;;;;;;;;;5090534;28;20191;-72
2021/03/18 04:31:52;;;;;;;0.15;0.15;;;;;;;;;;5090351;28;20164;-71
2021/03/18 04:34:19;;;;;;;0.10;0.10;;;;;;;;;;5090381;28;20180;-72
2021/03/18 04:36:46;;;;;;;0.10;0.10;;;;;;;;;;5090267;28;20242;-71
2021/03/18 04:39:13;;;;;;;0.08;0.08;;;;;;;;;;5090024;28;20164;-71
2021/03/18 04:41:40;;;;;;;0.10;0.10;;;;;;;;;;5089755;28;20171;-71
2021/03/18 04:44:07;;;;;;;0.43;0.43;;;;;;;;;;5072047;28;20164;-71
2021/03/18 04:46:33;;;;;;;0.10;0.10;;;;;;;;;;5090186;28;20235;-71
2021/03/18 04:49:01;;;;;;;0.10;0.10;;;;;;;;;;5089891;28;20688;-71
2021/03/18 04:51:28;;;;;;;0.25;0.25;;;;;;;;;;5089898;28;20168;-72
2021/03/18 04:53:55;;;;;;;0.32;0.32;;;;;;;;;;5089916;28;20156;-72
2021/03/18 04:56:22;;;;;;;0.10;0.10;;;;;;;;;;5089704;28;20187;-72
2021/03/18 04:58:48;;;;;;;0.38;0.38;;;;;;;;;;5089629;28;20164;-72
2021/03/18 05:01:16;;;;;;;0.10;0.10;;;;;;;;;;5089805;28;20164;-72
2021/03/18 05:03:44;;;;;;;0.13;0.13;;;;;;;;;;5089257;28;20202;-72
2021/03/18 05:06:11;;;;;;;0.17;0.17;;;;;;;;;;5089606;28;20219;-72
2021/03/18 05:08:38;;;;;;;0.20;0.20;;;;;;;;;;5089083;28;20204;-72
2021/03/18 05:11:05;;;;;;;0.10;0.10;;;;;;;;;;5088414;28;20194;-72
2021/03/18 05:13:32;;;;;;;0.03;0.03;;;;;;;;;;5071486;28;20164;-71
2021/03/18 05:15:59;;;;;;;0.10;0.10;;;;;;;;;;5071192;28;20188;-72
2021/03/18 05:18:26;;;;;;;0.20;0.20;;;;;;;;;;5089195;28;20160;-72
2021/03/18 05:20:52;;;;;;;0.00;0.00;;;;;;;;;;5089145;28;20171;-72
2021/03/18 05:23:19;;;;;;;0.10;0.10;;;;;;;;;;5089097;28;20228;-72
2021/03/18 05:25:46;;;;;;;0.10;0.10;;;;;;;;;;5089257;28;20245;-72
2021/03/18 05:28:13;;;;;;;0.10;0.10;;;;;;;;;;5088902;28;20198;-71
2021/03/18 05:30:39;;;;;;;0.10;0.10;;;;;;;;;;5089108;28;20161;-71
2021/03/18 05:33:06;;;;;;;0.10;0.10;;;;;;;;;;5089181;28;20164;-71
2021/03/18 05:35:33;;;;;;;0.47;0.40;;;;;;;;;;5089008;28;20200;-71
2021/03/18 05:38:00;;;;;;;0.10;0.10;;;;;;;;;;5088937;28;20248;-71
2021/03/18 05:40:26;;;;;;;0.10;0.10;;;;;;;;;;5088840;28;20167;-71
2021/03/18 05:42:53;;;;;;;0.10;0.10;;;;;;;;;;5088829;28;20160;-71
2021/03/18 05:45:20;;;;;;;0.10;0.10;;;;;;;;;;5088681;28;20196;-71
2021/03/18 05:47:46;;;;;;;0.10;0.10;;;;;;;;;;5088797;28;20306;-71
2021/03/18 05:50:15;;;;;;;0.10;0.10;;;;;;;;;;5088672;28;20235;-72
2021/03/18 05:52:41;;;;;;;0.10;0.10;;;;;;;;;;5087481;28;20157;-72
2021/03/18 05:55:09;;;;;;;0.10;0.10;;;;;;;;;;5070339;28;20184;-72
2021/03/18 05:57:40;;;;;;;0.10;0.10;;;;;;;;;;5070802;28;20266;-73
2021/03/18 06:00:09;;;;;;;0.10;0.10;;;;;;;;;;5087944;28;20170;-72
2021/03/18 06:02:35;;;;;;;0.10;0.10;;;;;;;;;;5088662;28;20160;-73
2021/03/18 06:05:03;;;;;;;0.20;0.20;;;;;;;;;;5088567;28;20188;-72
2021/03/18 06:07:29;;;;;;;0.00;0.00;;;;;;;;;;5070708;28;20160;-71
2021/03/18 06:09:56;;;;;;;0.15;0.15;;;;;;;;;;5070005;28;20207;-71
2021/03/18 06:12:23;;;;;;;0.63;0.63;;;;;;;;;;5088546;28;20244;-71
2021/03/18 06:14:49;;;;;;;0.20;0.20;;;;;;;;;;5088504;28;20163;-71
2021/03/18 06:17:16;;;;;;;0.10;0.10;;;;;;;;;;5088173;28;20160;-71
2021/03/18 06:19:43;;;;;;;0.10;0.10;;;;;;;;;;5070503;28;20168;-71
2021/03/18 06:22:09;;;;;;;0.20;0.20;;;;;;;;;;5088475;28;20608;-71
2021/03/18 06:24:46;;;;;;;0.00;0.00;;;;;;;;;;5088006;28;20188;-72
2021/03/18 06:27:23;;;;;;;0.10;0.10;;;;;;;;;;5070241;28;20174;-72
2021/03/18 06:29:49;;;;;;;0.13;0.13;;;;;;;;;;5088542;28;20183;-72
2021/03/18 06:32:17;;;;;;;0.10;0.10;;;;;;;;;;5069864;28;20168;-72
2021/03/18 06:34:43;;;;;;;0.10;0.10;;;;;;;;;;5088384;28;20157;-73
2021/03/18 06:37:28;;;;;;;0.43;0.43;;;;;;;;;;5088389;28;20156;-72
2021/03/18 06:39:56;;;;;;;0.10;0.10;;;;;;;;;;5088264;28;20149;-72
2021/03/18 06:42:22;;;;;;;0.10;0.10;;;;;;;;;;5069525;28;20164;-72
2021/03/18 06:44:49;;;;;;;0.10;0.10;;;;;;;;;;5088235;28;20221;-72
2021/03/18 06:47:15;;;;;;;2.10;1.20;;;;;;;;;;5088342;28;20270;-72
2021/03/18 06:49:41;;;;;;;0.10;0.10;;;;;;;;;;5070121;28;20563;-73
2021/03/18 06:52:08;;;;;;;0.00;0.00;;;;;;;;;;5087898;28;20172;-73
2021/03/18 06:54:38;;;;;;;0.10;0.10;;;;;;;;;;5070162;28;20227;-72
2021/03/18 06:57:06;;;;;;;0.10;0.10;;;;;;;;;;5070127;28;20164;-72
2021/03/18 06:59:33;;;;;;;0.10;0.10;;;;;;;;;;5088268;28;20221;-73
2021/03/18 07:02:08;;;;;;;0.10;0.10;;;;;;;;;;5088731;28;20160;-73
2021/03/18 07:04:36;;;;;;;0.20;0.20;;;;;;;;;;5091806;28;20227;-73
2021/03/18 07:07:03;;;;;;;1.50;1.40;;;;;;;;;;5092021;28;20175;-73
2021/03/18 07:09:30;;;;;;;0.10;0.10;;;;;;;;;;5091606;28;20266;-73
2021/03/18 07:12:16;;;;;;;0.10;0.10;;;;;;;;;;5091496;28;20160;-72
2021/03/18 07:14:45;;;;;;;0.10;0.10;;;;;;;;;;5091708;28;20184;-72
2021/03/18 07:17:17;;;;;;;11.20;1.98;;;;;;;;;;5091907;28;20641;-73
2021/03/18 07:19:43;;;;;;;0.10;0.10;;;;;;;;;;5091111;28;20164;-73
2021/03/18 07:22:19;;;;;;;0.10;0.10;;;;;;;;;;5091525;28;20163;-73
2021/03/18 07:24:52;;;;;;;0.30;0.30;;;;;;;;;;5091259;28;20199;-73
2021/03/18 07:27:18;;;;;;;0.10;0.10;;;;;;;;;;5073555;28;20246;-73
2021/03/18 07:29:47;;;;;;;0.15;0.15;;;;;;;;;;5073434;28;20188;-73
2021/03/18 07:32:13;;;;;;;0.20;0.20;;;;;;;;;;5091332;28;20268;-73
2021/03/18 07:34:40;;;;;;;0.10;0.10;;;;;;;;;;5073133;28;20282;-73
2021/03/18 07:37:08;;;;;;;0.20;0.20;;;;;;;;;;5091344;28;20234;-72
2021/03/18 07:39:34;;;;;;;0.10;0.10;;;;;;;;;;5072791;28;20175;-74
2021/03/18 07:42:01;;;;;;;0.25;0.25;;;;;;;;;;5091159;28;20163;-72
2021/03/18 07:44:27;;;;;;;0.38;0.38;;;;;;;;;;5090957;28;20200;-74
2021/03/18 07:46:54;;;;;;;0.10;0.10;;;;;;;;;;5069763;28;20295;-73
2021/03/18 07:49:23;;;;;;;0.20;0.20;;;;;;;;;;5069608;28;20275;-72
2021/03/18 07:51:51;;;;;;;0.10;0.10;;;;;;;;;;5071035;28;20149;-72
2021/03/18 07:54:19;;;;;;;0.10;0.10;;;;;;;;;;5070767;28;20211;-73
2021/03/18 07:56:46;;;;;;;0.10;0.10;;;;;;;;;;5070997;28;20187;-73
2021/03/18 07:59:13;;;;;;;0.20;0.20;;;;;;;;;;5071068;28;20188;-73
2021/03/18 08:01:40;;;;;;;0.10;0.10;;;;;;;;;;5067030;28;20172;-73
2021/03/18 08:04:08;;;;;;;0.10;0.10;;;;;;;;;;5040688;28;20207;-73
2021/03/18 08:06:53;;;;;;;0.32;0.32;;;;;;;;;;5050871;28;20170;-73
2021/03/18 08:09:39;;;;;;;0.10;0.10;;;;;;;;;;5050728;28;20199;-73
2021/03/18 08:12:05;;;;;;;0.03;0.03;;;;;;;;;;5050693;28;20197;-73
2021/03/18 08:14:31;;;;;;;0.82;0.82;;;;;;;;;;5050013;28;20267;-74
2021/03/18 08:16:57;;;;;;;0.10;0.10;;;;;;;;;;5050338;28;20556;-73
2021/03/18 08:19:24;;;;;;;0.38;0.38;;;;;;;;;;5050529;28;20567;-73
2021/03/18 08:21:51;;;;;;;0.10;0.10;;;;;;;;;;5049147;28;20241;-73
2021/03/18 08:24:23;;;;;;;0.20;0.20;;;;;;;;;;5050408;28;20204;-73
2021/03/18 08:26:50;;;;;;;0.20;0.20;;;;;;;;;;5050580;28;20165;-73
2021/03/18 08:29:27;;;;;;;0.10;0.10;;;;;;;;;;5049042;28;20193;-73
2021/03/18 08:31:58;;;;;;;0.05;0.05;;;;;;;;;;5050375;28;20626;-74
2021/03/18 08:34:43;;;;;;;0.85;0.85;;;;;;;;;;5050251;28;20216;-73
2021/03/18 08:37:09;;;;;;;0.10;0.10;;;;;;;;;;5048883;28;20253;-74
2021/03/18 08:39:38;;;;;;;0.20;0.20;;;;;;;;;;5049918;28;20169;-74
2021/03/18 08:42:22;;;;;;;0.10;0.10;;;;;;;;;;5037307;28;20198;-73
2021/03/18 08:44:49;;;;;;;0.47;0.47;;;;;;;;;;5037114;28;20229;-73
2021/03/18 08:47:15;;;;;;;0.10;0.10;;;;;;;;;;5059087;28;20221;-73
2021/03/18 08:49:42;;;;;;;0.10;0.10;;;;;;;;;;5057650;28;20255;-73
2021/03/18 08:52:11;;;;;;;0.10;0.10;;;;;;;;;;5049728;28;20153;-73
2021/03/18 08:54:41;;;;;;;0.35;0.35;;;;;;;;;;5031965;28;20212;-73
2021/03/18 08:57:27;;;;;;;5.72;1.85;;;;;;;;;;5034886;28;20175;-73
2021/03/18 08:59:55;;;;;;;0.50;0.50;;;;;;;;;;5069573;28;20168;-73
2021/03/18 09:02:30;;;;;;;0.43;0.43;;;;;;;;;;5051279;28;20165;-73
2021/03/18 09:04:57;;;;;;;0.10;0.10;;;;;;;;;;5061480;28;20270;-72
2021/03/18 09:07:30;;;;;;;0.05;0.05;;;;;;;;;;5048017;28;20192;-73
2021/03/18 09:10:00;;;;;;;0.10;0.10;;;;;;;;;;5059216;28;20196;-73
2021/03/18 09:12:35;;;;;;;0.10;0.10;;;;;;;;;;5051270;28;20160;-73
2021/03/18 09:15:09;;;;;;;0.90;0.30;;;;;;;;;;5050376;28;20215;-73
2021/03/18 09:17:35;;;;;;;0.22;0.22;;;;;;;;;;5069409;28;20167;-73
2021/03/18 09:20:02;;;;;;;0.38;0.38;;;;;;;;;;5069431;28;20299;-73
2021/03/18 09:22:28;;;;;;;0.32;0.32;;;;;;;;;;5069155;28;20165;-73
2021/03/18 09:24:57;;;;;;;0.10;0.10;;;;;;;;;;5050345;28;20201;-73
2021/03/18 09:27:23;;;;;;;0.30;0.30;;;;;;;;;;5068686;28;20149;-73
2021/03/18 09:29:50;;;;;;;0.20;0.20;;;;;;;;;;5069143;28;20284;-73
2021/03/18 09:32:16;;;;;;;0.13;0.13;;;;;;;;;;5051115;28;20164;-73
2021/03/18 09:34:43;;;;;;;0.10;0.10;;;;;;;;;;5050381;28;20204;-72
2021/03/18 09:37:10;;;;;;;0.43;0.43;;;;;;;;;;5068965;28;20199;-73
2021/03/18 09:39:37;;;;;;;0.10;0.10;;;;;;;;;;5051289;28;20184;-72
2021/03/18 09:42:05;;;;;;;0.57;0.57;;;;;;;;;;5069037;28;20270;-73
2021/03/18 09:44:32;;;;;;;0.20;0.20;;;;;;;;;;5088694;28;20652;-73
2021/03/18 09:46:59;;;;;;;0.55;0.55;;;;;;;;;;5063130;28;20224;-73
2021/03/18 09:49:30;;;;;;;0.98;0.80;;;;;;;;;;5068537;28;20578;-73
2021/03/18 09:51:57;;;;;;;1.55;0.90;;;;;;;;;;5068564;28;20168;-73
2021/03/18 09:54:24;;;;;;;1.55;0.82;;;;;;;;;;5068464;28;20199;-73
2021/03/18 09:56:53;;;;;;;0.10;0.10;;;;;;;;;;5067941;28;20540;-73
2021/03/18 09:59:23;;;;;;;0.00;0.00;;;;;;;;;;5050929;28;20240;-73
2021/03/18 10:01:50;;;;;;;0.85;0.85;;;;;;;;;;5068210;28;20175;-73
2021/03/18 10:04:21;;;;;;;0.45;0.45;;;;;;;;;;5050617;28;20303;-73
2021/03/18 10:06:51;;;;;;;0.95;0.50;;;;;;;;;;5050355;28;20191;-73
2021/03/18 10:09:20;;;;;;;0.20;0.20;;;;;;;;;;5067879;28;20689;-73
2021/03/18 10:11:57;;;;;;;0.25;0.25;;;;;;;;;;5068670;28;20184;-73
2021/03/18 10:14:35;;;;;;;0.15;0.15;;;;;;;;;;5050546;28;20192;-73
2021/03/18 10:17:02;;;;;;;0.20;0.20;;;;;;;;;;5068727;28;20156;-73
2021/03/18 10:19:31;;;;;;;0.35;0.35;;;;;;;;;;5049833;28;20173;-73
2021/03/18 10:22:01;;;;;;;0.10;0.10;;;;;;;;;;5068406;28;20200;-73
2021/03/18 10:24:27;;;;;;;0.22;0.22;;;;;;;;;;5068402;28;20250;-73
2021/03/18 10:26:53;;;;;;;0.10;0.10;;;;;;;;;;5068681;28;20165;-73
2021/03/18 10:29:20;;;;;;;0.20;0.20;;;;;;;;;;5067487;28;20226;-73
2021/03/18 10:31:47;;;;;;;2.63;0.75;;;;;;;;;;5068467;28;20156;-72
2021/03/18 10:34:40;;;;;;;0.10;0.10;;;;;;;;;;5068192;28;20163;-72
2021/03/18 10:37:23;;;;;;;0.10;0.10;;;;;;;;;;5064247;28;20223;-72
2021/03/18 10:39:49;;;;;;;0.20;0.20;;;;;;;;;;5051493;28;20184;-73
2021/03/18 10:42:15;;;;;;;0.10;0.10;;;;;;;;;;5052492;28;20193;-73
2021/03/18 10:44:43;;;;;;;0.40;0.35;;;;;;;;;;5052384;28;20172;-73
2021/03/18 10:47:16;;;;;;;0.10;0.10;;;;;;;;;;5078403;28;20222;-73
2021/03/18 10:49:57;;;;;;;0.00;0.00;;;;;;;;;;5070805;28;20204;-73
2021/03/18 10:52:23;;;;;;;1.17;1.17;;;;;;;;;;5071545;28;20257;-73
2021/03/18 10:54:53;;;;;;;0.10;0.10;;;;;;;;;;5074092;28;20197;-72
2021/03/18 10:57:20;;;;;;;0.17;0.17;;;;;;;;;;5092408;28;20216;-72
2021/03/18 10:59:53;;;;;;;0.10;0.10;;;;;;;;;;5092270;28;20163;-73
2021/03/18 11:02:22;;;;;;;0.10;0.10;;;;;;;;;;5072803;28;20202;-73
2021/03/18 11:04:54;;;;;;;0.10;0.10;;;;;;;;;;5074141;28;20506;-73
2021/03/18 11:07:21;;;;;;;0.32;0.32;;;;;;;;;;5073791;28;20171;-73
2021/03/18 11:10:05;;;;;;;0.10;0.10;;;;;;;;;;5091905;28;20195;-73
2021/03/18 11:12:32;;;;;;;0.10;0.10;;;;;;;;;;5072717;28;20191;-73
2021/03/18 11:14:58;;;;;;;0.47;0.47;;;;;;;;;;5091832;28;20558;-73
2021/03/18 11:17:27;;;;;;;1.08;1.00;;;;;;;;;;5073717;28;20168;-73
2021/03/18 11:20:10;;;;;;;0.30;0.30;;;;;;;;;;5073839;28;20172;-72
2021/03/18 11:22:36;;;;;;;0.22;0.22;;;;;;;;;;5091129;28;20192;-72
2021/03/18 11:25:03;;;;;;;3.63;1.55;;;;;;;;;;5072990;28;20663;-72
2021/03/18 11:27:31;;;;;;;0.10;0.10;;;;;;;;;;5091854;28;20243;-72
2021/03/18 11:29:57;;;;;;;0.38;0.38;;;;;;;;;;5091631;28;20192;-72
2021/03/18 11:32:25;;;;;;;0.50;0.50;;;;;;;;;;5073432;28;20286;-72
2021/03/18 11:34:59;;;;;;;0.10;0.10;;;;;;;;;;5090186;28;20152;-72
2021/03/18 11:37:25;;;;;;;0.38;0.38;;;;;;;;;;5091396;28;20157;-73
2021/03/18 11:39:52;;;;;;;0.20;0.20;;;;;;;;;;5073076;28;20188;-73
2021/03/18 11:42:18;;;;;;;0.20;0.10;;;;;;;;;;5059888;28;20209;-73
2021/03/18 11:44:44;;;;;;;0.10;0.10;;;;;;;;;;5050184;28;20166;-73
2021/03/18 11:47:12;;;;;;;0.10;0.10;;;;;;;;;;5051028;28;20209;-73
2021/03/18 11:49:39;;;;;;;1.70;1.60;;;;;;;;;;5079201;28;20229;-73
2021/03/18 11:52:06;;;;;;;0.10;0.10;;;;;;;;;;5090779;28;20206;-73
2021/03/18 11:54:33;;;;;;;0.10;0.10;;;;;;;;;;5073019;28;20168;-73
2021/03/18 11:56:59;;;;;;;0.10;0.10;;;;;;;;;;5090062;28;20235;-73
2021/03/18 11:59:25;;;;;;;0.00;0.00;;;;;;;;;;5091238;28;20179;-73
2021/03/18 12:01:52;;;;;;;0.10;0.10;;;;;;;;;;5072856;28;20195;-73
2021/03/18 12:04:18;;;;;;;0.10;0.10;;;;;;;;;;5091043;28;20237;-73
2021/03/18 12:06:45;;;;;;;0.08;0.08;;;;;;;;;;5089765;28;20235;-73
2021/03/18 12:09:11;;;;;;;0.00;0.00;;;;;;;;;;5090730;28;20213;-72
2021/03/18 12:11:37;;;;;;;0.32;0.32;;;;;;;;;;5072583;28;20200;-72
2021/03/18 12:14:04;;;;;;;0.00;0.00;;;;;;;;;;5072902;28;20168;-72
2021/03/18 12:16:30;;;;;;;0.10;0.10;;;;;;;;;;5090513;28;20239;-71
2021/03/18 12:18:57;;;;;;;0.10;0.10;;;;;;;;;;5071623;28;20191;-73
2021/03/18 12:21:23;;;;;;;0.10;0.10;;;;;;;;;;5072263;28;20182;-73
2021/03/18 12:23:49;;;;;;;0.20;0.20;;;;;;;;;;5084703;28;20204;-73
2021/03/18 12:26:15;;;;;;;0.50;0.50;;;;;;;;;;5042566;28;20200;-72
2021/03/18 12:28:41;;;;;;;0.10;0.10;;;;;;;;;;5049460;28;20215;-72
2021/03/18 12:31:08;;;;;;;0.10;0.10;;;;;;;;;;5050049;28;20157;-73
2021/03/18 12:33:35;;;;;;;0.20;0.20;;;;;;;;;;5050284;28;20193;-72
2021/03/18 12:36:01;;;;;;;0.20;0.20;;;;;;;;;;5032627;28;20188;-72
2021/03/18 12:38:27;;;;;;;0.65;0.57;;;;;;;;;;5031824;28;20176;-71
2021/03/18 12:40:54;;;;;;;0.00;0.00;;;;;;;;;;5049518;28;20166;-71
2021/03/18 12:43:21;;;;;;;0.10;0.10;;;;;;;;;;5050247;28;20248;-71
2021/03/18 12:45:48;;;;;;;0.00;0.00;;;;;;;;;;5049986;28;20189;-71
2021/03/18 12:48:14;;;;;;;0.20;0.20;;;;;;;;;;5055524;28;20234;-71
2021/03/18 12:50:42;;;;;;;0.13;0.13;;;;;;;;;;5088660;28;20157;-71
2021/03/18 12:53:08;;;;;;;0.68;0.40;;;;;;;;;;5089777;28;20222;-71
2021/03/18 12:55:34;;;;;;;0.10;0.10;;;;;;;;;;5089542;28;20534;-71
2021/03/18 12:58:00;;;;;;;0.17;0.17;;;;;;;;;;5089942;28;20243;-71
2021/03/18 13:00:29;;;;;;;0.20;0.20;;;;;;;;;;5089132;28;20170;-70
2021/03/18 13:02:55;;;;;;;0.70;0.40;;;;;;;;;;5089392;28;20188;-71
2021/03/18 13:05:21;;;;;;;0.10;0.10;;;;;;;;;;5089536;28;20220;-71
2021/03/18 13:07:48;;;;;;;0.25;0.25;;;;;;;;;;5083620;28;20168;-70
2021/03/18 13:10:14;;;;;;;0.10;0.10;;;;;;;;;;5069618;28;20188;-70
2021/03/18 13:12:41;;;;;;;0.47;0.47;;;;;;;;;;5068697;28;20199;-71
2021/03/18 13:15:08;;;;;;;0.00;0.00;;;;;;;;;;5069635;28;20164;-71
2021/03/18 13:17:34;;;;;;;0.10;0.10;;;;;;;;;;5069345;28;20165;-71
2021/03/18 13:20:00;;;;;;;0.10;0.10;;;;;;;;;;5051592;28;20200;-71
2021/03/18 13:22:27;;;;;;;0.10;0.10;;;;;;;;;;5068271;28;20196;-70
2021/03/18 13:24:53;;;;;;;0.10;0.10;;;;;;;;;;5068886;28;20167;-70
2021/03/18 13:27:19;;;;;;;0.05;0.05;;;;;;;;;;5069127;28;20173;-70
2021/03/18 13:29:46;;;;;;;0.25;0.25;;;;;;;;;;5069331;28;20189;-70
2021/03/18 13:32:13;;;;;;;0.10;0.10;;;;;;;;;;5068989;28;20203;-70
2021/03/18 13:34:39;;;;;;;0.20;0.20;;;;;;;;;;5068381;28;20173;-70
2021/03/18 13:37:05;;;;;;;0.10;0.10;;;;;;;;;;5068589;28;20161;-70
2021/03/18 13:39:31;;;;;;;0.00;0.00;;;;;;;;;;5051195;28;20541;-70
2021/03/18 13:41:58;;;;;;;0.30;0.30;;;;;;;;;;5068884;28;20207;-70
2021/03/18 13:44:24;;;;;;;1.48;1.38;;;;;;;;;;5067730;28;20168;-70
2021/03/18 13:46:50;;;;;;;2.40;1.35;;;;;;;;;;5063283;28;20236;-70
2021/03/18 13:49:17;;;;;;;0.10;0.10;;;;;;;;;;5050912;28;20280;-70
2021/03/18 13:51:43;;;;;;;0.28;0.28;;;;;;;;;;5021525;28;20189;-69
2021/03/18 13:54:10;;;;;;;0.10;0.10;;;;;;;;;;5046123;28;20200;-70
2021/03/18 13:56:36;;;;;;;0.20;0.20;;;;;;;;;;5067764;28;20164;-70
2021/03/18 13:59:03;;;;;;;0.30;0.30;;;;;;;;;;5067459;28;20198;-70
2021/03/18 14:01:29;;;;;;;0.30;0.30;;;;;;;;;;5037421;28;20189;-69
2021/03/18 14:03:55;;;;;;;0.30;0.30;;;;;;;;;;5044795;28;20207;-69
2021/03/18 14:06:21;;;;;;;0.13;0.13;;;;;;;;;;5048546;28;20641;-70
2021/03/18 14:08:47;;;;;;;0.10;0.10;;;;;;;;;;5047398;28;20205;-69
2021/03/18 14:11:14;;;;;;;0.10;0.10;;;;;;;;;;5030326;28;20184;-69
2021/03/18 14:13:40;;;;;;;0.10;0.10;;;;;;;;;;5048290;28;20188;-69
2021/03/18 14:16:08;;;;;;;0.10;0.10;;;;;;;;;;5030459;28;20200;-69
2021/03/18 14:18:34;;;;;;;0.10;0.10;;;;;;;;;;5047943;28;20156;-69
2021/03/18 14:21:00;;;;;;;0.10;0.10;;;;;;;;;;5046858;28;20208;-69
2021/03/18 14:23:27;;;;;;;0.30;0.30;;;;;;;;;;5048568;28;20650;-69
2021/03/18 14:25:53;;;;;;;0.03;0.03;;;;;;;;;;5048427;28;20570;-69
2021/03/18 14:28:19;;;;;;;0.10;0.10;;;;;;;;;;5030507;28;20287;-70
2021/03/18 14:30:46;;;;;;;0.40;0.40;;;;;;;;;;5047337;28;20192;-69
2021/03/18 14:33:13;;;;;;;0.17;0.17;;;;;;;;;;5048254;28;20173;-69
2021/03/18 14:35:40;;;;;;;0.00;0.00;;;;;;;;;;5048510;28;20166;-69
2021/03/18 14:38:07;;;;;;;0.10;0.10;;;;;;;;;;5048282;28;20166;-69
2021/03/18 14:40:34;;;;;;;1.45;0.52;;;;;;;;;;5047525;28;20172;-69
2021/03/18 14:43:00;;;;;;;0.10;0.10;;;;;;;;;;5048382;28;20172;-69
2021/03/18 14:45:27;;;;;;;0.13;0.13;;;;;;;;;;5048130;28;20157;-70
2021/03/18 14:47:53;;;;;;;0.10;0.10;;;;;;;;;;5048055;28;20221;-69
2021/03/18 14:50:20;;;;;;;0.15;0.15;;;;;;;;;;5066834;28;20176;-69